Time;durP1;ratioP1;P1;durP2;ratioP2;P2;SDS_P1;SDS_P2;PMS_P1;PMS_P2;Temp;Humidity;BMP_temperature;BMP_pressure;BME280_temperature;BME280_humidity;BME280_pressure;Samples;Min_cycle;Max_cycle;Signal;HPM_P1;HPM_P2
2024/04/09 00:01:42;;;;;;;2.87;2.33;;;24.80;68.80;;;;;;5384299;26;20514;-93
2024/04/09 00:04:09;;;;;;;2.57;1.80;;;24.90;68.90;;;;;;5384977;26;20260;-93
2024/04/09 00:06:40;;;;;;;2.93;1.70;;;24.80;68.80;;;;;;5384931;26;20455;-93
2024/04/09 00:09:06;;;;;;;3.13;1.73;;;24.80;68.80;;;;;;5384873;26;20959;-96
2024/04/09 00:11:35;;;;;;;3.30;2.00;;;24.80;68.80;;;;;;5384608;26;20570;-92
2024/04/09 00:14:04;;;;;;;2.43;1.83;;;24.80;68.80;;;;;;5437599;26;20441;-93
2024/04/09 00:16:33;;;;;;;3.50;1.93;;;24.90;69.00;;;;;;5455863;26;20526;-93
2024/04/09 00:18:59;;;;;;;2.20;1.80;;;24.80;68.80;;;;;;5454863;26;20445;-93
2024/04/09 00:21:29;;;;;;;3.67;1.70;;;24.80;68.80;;;;;;5455107;26;20550;-92
2024/04/09 00:23:58;;;;;;;3.10;2.03;;;24.90;68.90;;;;;;5454678;26;20457;-93
2024/04/09 00:26:29;;;;;;;3.50;2.40;;;24.80;68.80;;;;;;5454841;26;20460;-93
2024/04/09 00:28:55;;;;;;;3.80;1.93;;;24.80;68.90;;;;;;5454888;26;20452;-93
2024/04/09 00:31:24;;;;;;;3.10;1.90;;;24.90;69.00;;;;;;5454594;26;20491;-93
2024/04/09 00:33:51;;;;;;;2.50;2.03;;;24.80;68.80;;;;;;5455836;26;20519;-92
2024/04/09 00:36:21;;;;;;;3.13;2.10;;;24.90;68.90;;;;;;5455864;26;21028;-92
2024/04/09 00:38:48;;;;;;;4.00;3.20;;;24.80;68.90;;;;;;5455577;26;20573;-92
2024/04/09 00:41:19;;;;;;;4.40;3.40;;;24.80;68.80;;;;;;5455547;26;20972;-92
2024/04/09 00:43:45;;;;;;;4.10;2.37;;;24.80;68.80;;;;;;5455133;26;20461;-92
2024/04/09 00:46:14;;;;;;;3.70;2.90;;;24.80;68.80;;;;;;5456083;26;21081;-93
2024/04/09 00:48:41;;;;;;;4.77;2.43;;;24.80;68.80;;;;;;5455345;26;20441;-93
2024/04/09 00:51:11;;;;;;;5.23;2.63;;;24.80;68.90;;;;;;5455791;26;20441;-95
2024/04/09 00:53:39;;;;;;;3.53;2.77;;;24.80;68.80;;;;;;5455624;26;20452;-93
2024/04/09 00:56:08;;;;;;;3.33;2.10;;;24.80;68.80;;;;;;5455793;26;20787;-92
2024/04/09 00:58:38;;;;;;;3.00;2.27;;;24.70;68.60;;;;;;5455860;26;20464;-93
2024/04/09 01:01:07;;;;;;;3.43;2.87;;;24.80;68.80;;;;;;5455849;26;20445;-92
2024/04/09 01:03:33;;;;;;;3.80;2.60;;;24.70;68.70;;;;;;5455346;26;20457;-92
2024/04/09 01:06:02;;;;;;;3.50;2.70;;;24.70;68.70;;;;;;5455483;26;20507;-93
2024/04/09 01:08:28;;;;;;;3.57;2.57;;;24.70;68.60;;;;;;5455723;26;20449;-92
2024/04/09 01:10:56;;;;;;;2.87;1.90;;;24.80;68.80;;;;;;5460294;26;20452;-93
2024/04/09 01:13:22;;;;;;;3.07;2.53;;;24.70;68.60;;;;;;5477012;26;20219;-92
2024/04/09 01:15:53;;;;;;;3.60;2.77;;;24.80;68.80;;;;;;5477209;26;20441;-92
2024/04/09 01:18:19;;;;;;;2.67;2.43;;;24.70;68.60;;;;;;5477024;26;20208;-91
2024/04/09 01:20:48;;;;;;;2.80;2.30;;;24.70;68.60;;;;;;5469413;26;20554;-92
2024/04/09 01:23:16;;;;;;;3.37;2.60;;;24.70;68.70;;;;;;5458091;26;20231;-92
2024/04/09 01:25:45;;;;;;;3.70;2.77;;;24.80;68.80;;;;;;5456045;26;20440;-93
2024/04/09 01:28:11;;;;;;;2.70;2.20;;;24.70;68.70;;;;;;5455549;26;20441;-93
2024/04/09 01:30:40;;;;;;;3.00;2.30;;;24.70;68.70;;;;;;5455002;26;20452;-92
2024/04/09 01:33:06;;;;;;;2.63;2.10;;;24.70;68.70;;;;;;5454827;26;20498;-95
2024/04/09 01:35:35;;;;;;;2.97;2.30;;;24.80;68.80;;;;;;5455328;26;20456;-92
2024/04/09 01:38:01;;;;;;;3.93;2.30;;;24.70;68.60;;;;;;5455103;26;20219;-92
2024/04/09 01:40:32;;;;;;;2.90;2.20;;;24.70;68.60;;;;;;5455004;26;20530;-92
2024/04/09 01:42:57;;;;;;;2.90;2.10;;;24.70;68.70;;;;;;5454902;26;20613;-92
2024/04/09 01:45:26;;;;;;;3.10;2.43;;;24.70;68.60;;;;;;5454909;26;20464;-93
2024/04/09 01:47:52;;;;;;;2.93;2.50;;;24.80;68.70;;;;;;5454367;26;20227;-92
2024/04/09 01:50:20;;;;;;;2.27;2.07;;;24.70;68.60;;;;;;5455102;26;20457;-93
2024/04/09 01:52:48;;;;;;;3.80;2.50;;;24.70;68.60;;;;;;5454608;26;20347;-93
2024/04/09 01:55:17;;;;;;;2.40;1.90;;;24.70;68.60;;;;;;5457060;26;20528;-92
2024/04/09 01:57:46;;;;;;;3.07;2.27;;;24.70;68.60;;;;;;5458065;26;20579;-93
2024/04/09 02:00:19;;;;;;;3.10;2.43;;;24.70;68.70;;;;;;5458542;26;20951;-96
2024/04/09 02:02:46;;;;;;;3.43;2.20;;;24.70;68.60;;;;;;5457662;26;20499;-92
2024/04/09 02:05:18;;;;;;;3.03;2.27;;;24.70;68.60;;;;;;5457726;26;20434;-95
2024/04/09 02:07:44;;;;;;;3.60;2.90;;;24.70;69.50;;;;;;5457740;26;20497;-92
2024/04/09 02:10:13;;;;;;;3.73;2.60;;;24.70;68.60;;;;;;5457539;26;20469;-92
2024/04/09 02:12:39;;;;;;;2.10;1.73;;;24.70;68.60;;;;;;5453546;26;20473;-92
2024/04/09 02:15:12;;;;;;;3.40;2.20;;;24.70;68.60;;;;;;5457588;26;20456;-92
2024/04/09 02:17:38;;;;;;;2.40;2.00;;;24.70;68.70;;;;;;5457364;26;20453;-92
2024/04/09 02:20:09;;;;;;;2.90;2.30;;;24.70;68.60;;;;;;5457295;26;20452;-91
2024/04/09 02:22:35;;;;;;;3.10;2.17;;;24.70;68.60;;;;;;5457244;26;20445;-91
2024/04/09 02:25:04;;;;;;;3.23;2.40;;;24.70;68.60;;;;;;5457562;26;20936;-92
2024/04/09 02:27:30;;;;;;;2.90;2.30;;;24.70;68.60;;;;;;5457364;26;20448;-92
2024/04/09 02:29:59;;;;;;;2.40;2.10;;;24.70;68.60;;;;;;5457968;26;20501;-92
2024/04/09 02:32:28;;;;;;;3.27;1.70;;;24.70;68.60;;;;;;5457817;26;20829;-93
2024/04/09 02:34:56;;;;;;;2.43;1.70;;;24.80;68.80;;;;;;5457401;26;20834;-93
2024/04/09 02:37:22;;;;;;;3.10;1.83;;;24.70;68.60;;;;;;5457341;26;20501;-93
2024/04/09 02:39:53;;;;;;;2.97;2.13;;;24.70;68.60;;;;;;5456974;26;20468;-93
2024/04/09 02:42:20;;;;;;;2.67;2.17;;;24.70;68.60;;;;;;5456996;26;20243;-93
2024/04/09 02:44:49;;;;;;;2.60;1.80;;;24.60;68.50;;;;;;5457256;26;20453;-95
2024/04/09 02:47:15;;;;;;;2.40;1.90;;;24.60;68.50;;;;;;5457248;26;20561;-93
2024/04/09 02:49:46;;;;;;;2.87;2.07;;;24.60;68.50;;;;;;5458763;26;20512;-92
2024/04/09 02:52:12;;;;;;;2.87;1.83;;;24.60;68.50;;;;;;5458738;26;20445;-93
2024/04/09 02:54:41;;;;;;;2.80;2.13;;;24.60;69.30;;;;;;5457755;26;20581;-93
2024/04/09 02:57:07;;;;;;;2.40;2.10;;;24.60;68.50;;;;;;5456640;26;21011;-93
2024/04/09 02:59:36;;;;;;;1.97;1.67;;;24.60;68.50;;;;;;5456650;26;20453;-93
2024/04/09 03:02:02;;;;;;;2.47;1.83;;;24.60;68.50;;;;;;5456771;26;20829;-93
2024/04/09 03:04:30;;;;;;;4.23;2.10;;;24.60;68.50;;;;;;5455970;26;20464;-93
2024/04/09 03:06:59;;;;;;;2.23;1.77;;;24.60;68.50;;;;;;5456642;26;21019;-93
2024/04/09 03:09:28;;;;;;;2.60;1.83;;;24.70;69.50;;;;;;5456930;26;21069;-95
2024/04/09 03:11:53;;;;;;;2.87;2.03;;;24.60;69.40;;;;;;5441948;26;20606;-92
2024/04/09 03:14:22;;;;;;;3.40;2.20;;;24.60;68.40;;;;;;5386138;26;20455;-92
2024/04/09 03:16:49;;;;;;;2.80;1.83;;;24.60;69.30;;;;;;5385204;26;20574;-92
2024/04/09 03:19:18;;;;;;;2.80;1.87;;;24.60;68.50;;;;;;5385800;26;20554;-94
2024/04/09 03:21:44;;;;;;;2.47;1.87;;;24.60;68.50;;;;;;5385235;26;20957;-91
2024/04/09 03:24:15;;;;;;;4.37;2.30;;;24.60;68.40;;;;;;5385273;26;20554;-95
2024/04/09 03:26:41;;;;;;;7.83;2.20;;;24.60;68.50;;;;;;5385747;26;20494;-92
2024/04/09 03:29:10;;;;;;;2.20;1.50;;;24.60;68.40;;;;;;5385445;26;20455;-92
2024/04/09 03:31:35;;;;;;;2.93;2.17;;;24.60;68.40;;;;;;5385242;26;20217;-93
2024/04/09 03:34:04;;;;;;;3.20;1.93;;;24.60;68.50;;;;;;5385748;26;20951;-92
2024/04/09 03:36:30;;;;;;;2.53;1.70;;;24.60;68.50;;;;;;5385159;26;20221;-92
2024/04/09 03:38:58;;;;;;;3.60;1.90;;;24.60;68.50;;;;;;5385075;26;20448;-95
2024/04/09 03:41:30;;;;;;;2.57;2.10;;;24.60;68.50;;;;;;5385521;26;20472;-91
2024/04/09 03:43:55;;;;;;;3.00;1.90;;;24.60;68.50;;;;;;5385518;26;20443;-92
2024/04/09 03:46:24;;;;;;;3.07;2.40;;;24.60;68.50;;;;;;5384941;26;20460;-91
2024/04/09 03:48:50;;;;;;;2.70;1.97;;;24.70;68.60;;;;;;5385030;26;20326;-91
2024/04/09 03:51:19;;;;;;;3.00;1.93;;;24.60;68.40;;;;;;5385185;26;20463;-92
2024/04/09 03:53:50;;;;;;;2.63;1.70;;;24.60;68.50;;;;;;5385927;26;20217;-92
2024/04/09 03:56:19;;;;;;;3.00;1.70;;;24.60;68.50;;;;;;5385073;26;20496;-91
2024/04/09 03:58:49;;;;;;;7.00;1.80;;;24.50;68.40;;;;;;5384846;26;20544;-92
2024/04/09 04:01:18;;;;;;;3.50;2.00;;;24.50;68.40;;;;;;5385437;26;20565;-92
2024/04/09 04:03:47;;;;;;;3.40;2.10;;;24.70;68.60;;;;;;5385114;26;20523;-93
2024/04/09 04:06:17;;;;;;;2.47;1.60;;;24.60;68.50;;;;;;5384919;26;20523;-91
2024/04/09 04:08:44;;;;;;;2.27;1.90;;;24.70;69.50;;;;;;5385471;26;21041;-93
2024/04/09 04:11:13;;;;;;;2.90;1.63;;;24.50;68.40;;;;;;5384685;26;20519;-92
2024/04/09 04:13:40;;;;;;;3.60;1.87;;;24.50;68.40;;;;;;5384901;26;20482;-94
2024/04/09 04:16:12;;;;;;;3.03;1.93;;;24.50;68.30;;;;;;5384975;26;20455;-93
2024/04/09 04:18:40;;;;;;;2.50;1.80;;;24.50;68.40;;;;;;5384046;26;20444;-93
2024/04/09 04:21:12;;;;;;;2.30;1.40;;;24.50;68.40;;;;;;5385050;26;20538;-93
2024/04/09 04:23:38;;;;;;;2.63;1.73;;;24.50;68.40;;;;;;5384779;26;20463;-94
2024/04/09 04:26:10;;;;;;;3.27;1.90;;;24.50;68.30;;;;;;5390010;26;20486;-93
2024/04/09 04:28:38;;;;;;;2.60;1.53;;;24.50;68.40;;;;;;5406267;26;20487;-92
2024/04/09 04:31:12;;;;;;;2.80;1.67;;;24.50;68.40;;;;;;5403788;26;20452;-92
2024/04/09 04:33:39;;;;;;;3.20;1.97;;;24.50;68.30;;;;;;5385148;26;20444;-93
2024/04/09 04:36:08;;;;;;;2.23;1.67;;;24.50;68.40;;;;;;5383873;26;20507;-93
2024/04/09 04:38:34;;;;;;;2.40;2.03;;;24.50;68.30;;;;;;5384187;26;20447;-92
2024/04/09 04:41:04;;;;;;;2.60;1.70;;;24.50;68.40;;;;;;5384435;26;20538;-92
2024/04/09 04:43:31;;;;;;;3.60;1.87;;;24.50;68.40;;;;;;5383811;26;20435;-93
2024/04/09 04:45:59;;;;;;;2.30;1.77;;;24.50;68.40;;;;;;5383988;26;20510;-93
2024/04/09 04:48:28;;;;;;;3.53;1.90;;;24.50;68.40;;;;;;5383885;26;20455;-92
2024/04/09 04:50:56;;;;;;;2.20;1.73;;;24.50;68.30;;;;;;5384576;26;20440;-93
2024/04/09 04:53:24;;;;;;;2.90;1.97;;;24.50;68.40;;;;;;5383399;26;20452;-93
2024/04/09 04:55:52;;;;;;;3.90;2.10;;;24.50;68.40;;;;;;5384181;26;20502;-92
2024/04/09 04:58:19;;;;;;;2.00;1.57;;;24.60;68.50;;;;;;5383699;26;20448;-91
2024/04/09 05:00:48;;;;;;;2.33;1.60;;;24.60;68.50;;;;;;5388236;26;20458;-90
2024/04/09 05:03:14;;;;;;;2.07;1.60;;;24.50;68.50;;;;;;5383137;26;20488;-90
2024/04/09 05:05:47;;;;;;;2.93;1.73;;;24.50;68.50;;;;;;5415194;26;20470;-92
2024/04/09 05:08:13;;;;;;;2.00;1.40;;;24.50;68.40;;;;;;5418762;26;20832;-92
2024/04/09 05:10:42;;;;;;;2.30;1.50;;;24.50;68.50;;;;;;5418332;26;20917;-91
2024/04/09 05:13:08;;;;;;;4.30;1.67;;;24.50;68.50;;;;;;5420920;26;20984;-91
2024/04/09 05:15:36;;;;;;;3.27;2.30;;;24.50;68.50;;;;;;5383176;26;20459;-91
2024/04/09 05:18:03;;;;;;;3.00;1.77;;;24.50;68.50;;;;;;5383130;26;20455;-91
2024/04/09 05:20:32;;;;;;;3.20;1.80;;;24.50;68.50;;;;;;5383204;26;20459;-90
2024/04/09 05:23:02;;;;;;;3.40;2.10;;;24.50;68.60;;;;;;5382896;26;20483;-91
2024/04/09 05:25:32;;;;;;;3.60;1.50;;;24.60;68.80;;;;;;5383329;26;20502;-92
2024/04/09 05:27:58;;;;;;;2.13;1.70;;;24.50;68.60;;;;;;5383083;26;20483;-95
2024/04/09 05:30:26;;;;;;;3.33;1.73;;;24.50;68.70;;;;;;5386004;26;20447;-91
2024/04/09 05:32:52;;;;;;;3.70;1.87;;;24.50;68.50;;;;;;5401051;26;20565;-92
2024/04/09 05:35:21;;;;;;;3.87;1.87;;;24.50;68.50;;;;;;5458054;26;20468;-93
2024/04/09 05:37:47;;;;;;;7.40;2.17;;;24.50;68.80;;;;;;5458392;26;20971;-94
2024/04/09 05:40:19;;;;;;;3.80;1.40;;;24.50;68.80;;;;;;5458433;26;20508;-94
2024/04/09 05:42:46;;;;;;;2.37;1.50;;;24.50;68.80;;;;;;5458863;26;20932;-94
2024/04/09 05:45:16;;;;;;;2.37;1.50;;;24.50;68.70;;;;;;5458456;26;20440;-94
2024/04/09 05:47:42;;;;;;;2.53;1.47;;;24.50;68.70;;;;;;5457965;26;20483;-94
2024/04/09 05:50:11;;;;;;;2.67;1.50;;;24.50;68.70;;;;;;5458196;26;20452;-94
2024/04/09 05:52:37;;;;;;;2.00;1.53;;;24.50;68.70;;;;;;5457870;26;20509;-94
2024/04/09 05:55:08;;;;;;;2.10;1.63;;;24.50;68.80;;;;;;5458433;26;20512;-94
2024/04/09 05:57:39;;;;;;;3.10;1.80;;;24.50;68.90;;;;;;5469577;26;20265;-92
2024/04/09 06:00:07;;;;;;;2.67;1.50;;;24.50;68.90;;;;;;5480110;26;20429;-93
2024/04/09 06:02:36;;;;;;;3.67;1.97;;;24.50;68.90;;;;;;5478765;26;20429;-94
2024/04/09 06:05:02;;;;;;;4.03;1.40;;;24.50;68.90;;;;;;5474416;26;20492;-94
2024/04/09 06:07:31;;;;;;;2.70;1.77;;;24.50;69.00;;;;;;5460918;26;20830;-93
2024/04/09 06:09:57;;;;;;;3.53;1.73;;;24.50;69.00;;;;;;5459007;26;20562;-94
2024/04/09 06:12:26;;;;;;;2.40;1.60;;;24.40;68.80;;;;;;5458025;26;20441;-94
2024/04/09 06:14:56;;;;;;;2.57;1.53;;;24.50;69.10;;;;;;5457932;26;20488;-94
2024/04/09 06:17:24;;;;;;;3.60;1.80;;;24.50;69.00;;;;;;5457464;26;20441;-94
2024/04/09 06:19:53;;;;;;;4.60;1.97;;;24.50;69.00;;;;;;5457673;26;20441;-94
2024/04/09 06:22:22;;;;;;;2.37;1.30;;;24.60;69.30;;;;;;5457286;26;20468;-94
2024/04/09 06:24:48;;;;;;;3.73;2.00;;;24.50;69.50;;;;;;5458443;26;20433;-94
2024/04/09 06:27:17;;;;;;;2.50;1.60;;;24.50;69.50;;;;;;5457974;26;20445;-94
2024/04/09 06:29:42;;;;;;;3.33;1.77;;;24.50;69.30;;;;;;5457892;26;20441;-94
2024/04/09 06:32:14;;;;;;;3.73;1.53;;;24.50;69.30;;;;;;5457731;26;20507;-94
2024/04/09 06:34:40;;;;;;;4.20;1.60;;;24.50;69.20;;;;;;5457731;26;20480;-94
2024/04/09 06:37:10;;;;;;;4.00;1.67;;;24.50;69.30;;;;;;5458402;26;20940;-94
2024/04/09 06:39:36;;;;;;;2.80;1.20;;;24.50;69.30;;;;;;5460812;26;20465;-94
2024/04/09 06:42:05;;;;;;;3.67;1.50;;;24.40;69.40;;;;;;5461032;26;20569;-95
2024/04/09 06:44:31;;;;;;;3.63;1.57;;;24.40;69.30;;;;;;5459085;26;20489;-94
2024/04/09 06:47:00;;;;;;;7.57;1.60;;;24.40;69.40;;;;;;5457434;26;20441;-94
2024/04/09 06:49:30;;;;;;;7.40;1.57;;;24.40;69.10;;;;;;5457083;26;20489;-93
2024/04/09 06:51:59;;;;;;;5.70;1.63;;;24.40;69.50;;;;;;5457139;26;20441;-93
2024/04/09 06:54:25;;;;;;;4.43;1.83;;;24.40;68.40;;;;;;5456968;26;20433;-91
2024/04/09 06:56:54;;;;;;;2.07;1.53;;;24.40;68.30;;;;;;5457816;26;20828;-93
2024/04/09 06:59:23;;;;;;;3.30;1.40;;;24.40;68.50;;;;;;5457360;26;20547;-94
2024/04/09 07:01:51;;;;;;;12.03;2.30;;;24.30;68.90;;;;;;5456766;26;20464;-89
2024/04/09 07:04:17;;;;;;;5.60;1.83;;;24.30;69.00;;;;;;5456792;26;20524;-88
2024/04/09 07:06:49;;;;;;;7.30;2.17;;;24.30;69.00;;;;;;5456192;26;20457;-93
2024/04/09 07:09:16;;;;;;;9.00;1.53;;;24.40;69.10;;;;;;5455528;26;21011;-90
2024/04/09 07:11:45;;;;;;;2.70;1.53;;;24.30;69.00;;;;;;5455761;26;21024;-87
2024/04/09 07:14:13;;;;;;;3.70;1.83;;;24.40;69.10;;;;;;5457050;26;20465;-93
2024/04/09 07:16:42;;;;;;;6.17;1.83;;;24.30;68.90;;;;;;5456502;26;20440;-92
2024/04/09 07:19:08;;;;;;;3.33;1.80;;;24.40;68.80;;;;;;5456292;26;20484;-91
2024/04/09 07:30:17;;;;;;;3.30;1.60;;;24.40;68.60;;;;;;5430131;26;20442;-96
2024/04/09 07:32:59;;;;;;;3.63;1.60;;;24.30;68.40;;;;;;5453216;21;20548;-94
2024/04/09 07:42:26;;;;;;;5.03;1.70;;;24.40;68.50;;;;;;5335883;26;20481;-94
2024/04/09 07:45:31;;;;;;;7.47;2.27;;;24.40;68.50;;;;;;5337242;26;20554;-95
2024/04/09 07:55:59;;;;;;;6.80;2.60;;;24.40;68.20;;;;;;1463997;24;20304;-88
2024/04/09 07:58:26;;;;;;;6.00;3.10;;;24.50;68.30;;;;;;5386460;26;20500;-88
2024/04/09 08:00:57;;;;;;;7.70;3.30;;;24.50;68.30;;;;;;5386841;26;20443;-87
2024/04/09 08:03:23;;;;;;;10.10;4.27;;;24.50;68.50;;;;;;5386832;26;20514;-88
2024/04/09 08:05:52;;;;;;;12.37;4.80;;;24.50;68.70;;;;;;5387248;26;20448;-88
2024/04/09 08:08:21;;;;;;;20.73;6.70;;;24.50;69.10;;;;;;5388549;26;20524;-88
2024/04/09 08:10:54;;;;;;;18.07;5.30;;;24.60;69.30;;;;;;5350576;26;20505;-89
2024/04/09 08:13:21;;;;;;;19.07;5.30;;;24.50;69.40;;;;;;5417183;21;20497;-89
2024/04/09 08:15:54;;;;;;;25.27;6.73;;;24.50;65.30;;;;;;5455932;26;20472;-87
2024/04/09 08:18:25;;;;;;;21.27;4.80;;;24.40;66.00;;;;;;5454900;26;20513;-87
2024/04/09 08:20:55;;;;;;;9.03;4.63;;;24.40;66.90;;;;;;5455407;26;20888;-85
2024/04/09 08:23:21;;;;;;;33.43;4.70;;;24.40;67.10;;;;;;5454451;26;20525;-87
2024/04/09 08:25:51;;;;;;;12.87;3.93;;;24.40;67.60;;;;;;5454371;26;20512;-86
2024/04/09 08:28:18;;;;;;;7.90;3.97;;;24.50;68.10;;;;;;5454758;26;20516;-89
2024/04/09 08:30:47;;;;;;;10.90;4.23;;;24.50;68.20;;;;;;5453285;26;20476;-88
2024/04/09 08:33:12;;;;;;;9.47;4.30;;;24.50;68.20;;;;;;5453678;26;20512;-87
2024/04/09 08:35:48;;;;;;;11.13;4.63;;;24.60;68.30;;;;;;5453392;26;20565;-87
2024/04/09 08:38:13;;;;;;;14.70;4.90;;;24.60;68.30;;;;;;5453690;26;20254;-87
2024/04/09 08:40:43;;;;;;;7.13;3.80;;;24.70;68.40;;;;;;5453814;26;20860;-87
2024/04/09 08:43:08;;;;;;;11.33;4.20;;;24.70;68.30;;;;;;5453762;26;20215;-87
2024/04/09 08:45:39;;;;;;;11.60;4.47;;;24.70;68.20;;;;;;5450532;26;20578;-87
2024/04/09 08:48:07;;;;;;;8.33;4.00;;;24.70;68.20;;;;;;5381672;26;20464;-87
2024/04/09 08:50:35;;;;;;;9.20;4.43;;;24.70;68.20;;;;;;5381675;26;20513;-87
2024/04/09 08:53:04;;;;;;;8.43;3.90;;;24.70;68.20;;;;;;5381999;26;20576;-87
2024/04/09 08:55:33;;;;;;;7.00;3.23;;;24.70;68.10;;;;;;5381811;26;20970;-87
2024/04/09 08:58:01;;;;;;;7.93;4.20;;;24.80;68.30;;;;;;5382317;26;20459;-88
2024/04/09 09:00:29;;;;;;;9.90;3.77;;;24.70;68.20;;;;;;5381639;26;20512;-88
2024/04/09 09:02:55;;;;;;;6.90;3.57;;;24.80;68.30;;;;;;5382346;26;20606;-87
2024/04/09 09:05:24;;;;;;;7.40;3.30;;;24.80;68.20;;;;;;5386147;26;20885;-88
2024/04/09 09:08:02;;;;;;;6.90;3.50;;;24.80;68.10;;;;;;5385927;26;20217;-89
2024/04/09 09:25:32;;;;;;;5.37;3.03;;;24.70;66.10;;;;;;5641637;21;20522;-96
2024/04/09 09:29:09;;;;;;;9.17;2.73;;;24.70;66.10;;;;;;6200784;21;20507;-89
2024/04/09 09:31:39;;;;;;;6.63;2.73;;;24.70;66.30;;;;;;5400675;26;20455;-89
2024/04/09 09:34:10;;;;;;;4.43;2.67;;;24.70;66.30;;;;;;5401787;26;20492;-89
2024/04/09 09:36:45;;;;;;;5.90;2.40;;;24.70;66.30;;;;;;5401008;26;20515;-90
2024/04/09 09:39:20;;;;;;;9.87;3.33;;;24.70;66.30;;;;;;5393952;26;20459;-90
2024/04/09 09:41:49;;;;;;;34.43;3.07;;;24.70;66.40;;;;;;5421357;26;20445;-95
2024/04/09 09:44:37;;;;;;;8.73;2.60;;;24.70;66.30;;;;;;5431531;26;20501;-91
2024/04/09 09:47:04;;;;;;;6.10;2.90;;;24.70;66.40;;;;;;5428329;26;20519;-91
2024/04/09 09:49:33;;;;;;;4.33;2.70;;;24.70;66.70;;;;;;5430923;26;20441;-89
2024/04/09 09:52:00;;;;;;;3.53;2.30;;;24.70;66.80;;;;;;5426069;26;20450;-89
2024/04/09 09:54:29;;;;;;;5.37;2.17;;;24.70;66.30;;;;;;5423019;26;20513;-89
2024/04/09 09:57:02;;;;;;;6.40;2.40;;;24.70;66.90;;;;;;5421445;26;20443;-89
2024/04/09 09:59:38;;;;;;;10.23;2.20;;;24.70;66.00;;;;;;5421399;26;20517;-90
2024/04/09 10:02:06;;;;;;;11.20;2.77;;;24.70;66.10;;;;;;5426481;26;20457;-90
2024/04/09 10:04:36;;;;;;;4.47;1.80;;;24.60;66.00;;;;;;5424410;26;20701;-89
2024/04/09 10:09:58;;;;;;;5.40;2.57;;;24.60;66.00;;;;;;5416994;26;20493;-89
2024/04/09 10:12:28;;;;;;;4.13;1.87;;;24.60;66.00;;;;;;5422990;26;20561;-89
2024/04/09 10:15:05;;;;;;;8.17;1.87;;;24.60;66.10;;;;;;5421825;26;20866;-88
2024/04/09 10:17:46;;;;;;;4.83;2.20;;;24.60;65.90;;;;;;5423946;26;20450;-93
2024/04/09 10:20:20;;;;;;;4.63;2.33;;;24.70;66.20;;;;;;5426928;26;20774;-89
2024/04/09 10:22:47;;;;;;;2.73;2.10;;;24.70;66.30;;;;;;5425370;26;20520;-88
2024/04/09 10:25:20;;;;;;;3.60;1.83;;;24.70;65.90;;;;;;5420995;26;20544;-89
2024/04/09 10:27:46;;;;;;;3.87;1.60;;;24.80;65.90;;;;;;5421045;26;20466;-88
2024/04/09 10:30:21;;;;;;;3.63;2.00;;;24.80;65.80;;;;;;5421051;26;20533;-89
2024/04/09 10:32:57;;;;;;;4.27;1.87;;;24.80;65.80;;;;;;5421293;26;20524;-89
2024/04/09 10:35:26;;;;;;;4.27;2.20;;;24.80;65.90;;;;;;5420970;26;20972;-88
2024/04/09 10:37:53;;;;;;;5.17;1.80;;;24.90;66.10;;;;;;5420779;26;20470;-89
2024/04/09 10:40:22;;;;;;;2.63;1.73;;;25.00;66.40;;;;;;5423064;26;20509;-90
2024/04/09 10:42:48;;;;;;;2.90;2.00;;;25.00;66.40;;;;;;5424135;26;20462;-89
2024/04/09 10:45:20;;;;;;;3.80;2.03;;;25.00;66.30;;;;;;5422324;26;20896;-87
2024/04/09 10:47:46;;;;;;;2.80;1.63;;;25.00;66.00;;;;;;5421087;26;20555;-89
2024/04/09 10:50:17;;;;;;;4.67;1.40;;;25.10;66.20;;;;;;5420249;26;20450;-87
2024/04/09 10:52:43;;;;;;;4.07;1.83;;;25.10;66.30;;;;;;5425162;26;20450;-87
2024/04/09 10:55:13;;;;;;;3.73;1.80;;;25.10;66.10;;;;;;5442774;26;20526;-87
2024/04/09 10:57:39;;;;;;;4.80;1.70;;;25.10;65.90;;;;;;5442794;26;20435;-89
2024/04/09 11:00:11;;;;;;;5.13;1.53;;;25.10;65.90;;;;;;5426470;26;20521;-88
2024/04/09 11:02:41;;;;;;;4.77;2.03;;;25.10;66.00;;;;;;5435810;26;20450;-89
2024/04/09 11:05:11;;;;;;;4.30;1.90;;;25.20;66.10;;;;;;5420191;26;20442;-88
2024/04/09 11:07:38;;;;;;;6.70;2.57;;;25.00;66.40;;;;;;5420044;26;20451;-87
2024/04/09 11:10:09;;;;;;;3.73;1.60;;;25.20;66.70;;;;;;5419904;26;20561;-86
2024/04/09 11:12:36;;;;;;;3.93;1.93;;;25.10;66.50;;;;;;5419926;26;21033;-87
2024/04/09 11:15:05;;;;;;;4.17;2.00;;;25.10;66.40;;;;;;5408472;26;20468;-85
2024/04/09 11:17:32;;;;;;;3.23;1.50;;;25.10;66.40;;;;;;5383301;26;20597;-86
2024/04/09 11:20:14;;;;;;;4.50;1.43;;;25.20;66.50;;;;;;5385686;26;20959;-86
2024/04/09 11:22:43;;;;;;;2.30;1.40;;;25.20;66.60;;;;;;5387314;26;20460;-86
2024/04/09 11:25:13;;;;;;;6.63;1.67;;;25.20;66.60;;;;;;5383918;26;20464;-84
2024/04/09 11:27:39;;;;;;;5.90;1.40;;;25.10;66.60;;;;;;5383644;26;20456;-82
2024/04/09 11:30:09;;;;;;;4.70;2.10;;;25.10;66.70;;;;;;5383100;26;20519;-86
2024/04/09 11:32:36;;;;;;;3.83;2.23;;;25.10;66.90;;;;;;5384959;26;20951;-87
2024/04/09 11:35:05;;;;;;;4.70;1.63;;;25.10;66.90;;;;;;5385195;26;20443;-87
2024/04/09 11:37:33;;;;;;;2.23;1.33;;;25.20;66.90;;;;;;5385382;26;20517;-87
2024/04/09 12:05:06;;;;;;;5.40;1.30;;;24.90;65.40;;;;;;5799783;21;20529;-89
2024/04/09 12:32:46;;;;;;;5.23;1.87;;;24.90;65.60;;;;;;5735069;21;20523;-92
2024/04/09 12:43:00;;;;;;;2.63;1.20;;;25.00;64.90;;;;;;5309795;26;21047;-89
2024/04/09 12:45:26;;;;;;;5.07;1.47;;;25.00;64.80;;;;;;5349616;26;20449;-91
2024/04/09 12:47:57;;;;;;;5.60;1.70;;;25.00;65.50;;;;;;5348867;26;20526;-91
2024/04/09 12:50:24;;;;;;;3.00;1.10;;;25.10;66.10;;;;;;5349515;26;20219;-88
2024/04/09 12:52:53;;;;;;;3.93;1.00;;;25.00;64.50;;;;;;5347083;26;20571;-89
2024/04/09 12:55:18;;;;;;;7.23;2.07;;;25.00;64.90;;;;;;5347731;26;20266;-89
2024/04/09 12:57:47;;;;;;;14.67;1.87;;;25.00;62.80;;;;;;5346636;26;20956;-90
2024/04/09 13:00:14;;;;;;;3.30;1.53;;;24.90;63.10;;;;;;5346733;26;20243;-89
2024/04/09 13:02:42;;;;;;;5.80;1.40;;;24.90;64.50;;;;;;5347731;26;20784;-88
2024/04/09 13:05:15;;;;;;;7.43;1.70;;;24.90;62.80;;;;;;5347298;26;20589;-87
2024/04/09 13:07:44;;;;;;;4.20;1.47;;;24.80;62.90;;;;;;5347976;26;20507;-89
2024/04/09 13:10:14;;;;;;;11.43;1.73;;;24.80;59.50;;;;;;5347697;26;20468;-89
2024/04/09 13:12:43;;;;;;;3.67;1.20;;;24.80;59.80;;;;;;5347057;26;20458;-89
2024/04/09 13:15:08;;;;;;;4.90;1.33;;;24.80;61.00;;;;;;5347362;26;20521;-89
2024/04/09 13:17:37;;;;;;;2.70;1.60;;;24.70;61.80;;;;;;5347418;26;20559;-89
2024/04/09 13:20:04;;;;;;;3.90;1.60;;;24.80;62.40;;;;;;5347546;26;20234;-89
2024/04/09 13:22:35;;;;;;;3.57;1.17;;;24.70;62.90;;;;;;5348055;26;20564;-89
2024/04/09 13:25:01;;;;;;;7.93;1.20;;;24.70;63.00;;;;;;5347618;26;20433;-88
2024/04/09 13:27:31;;;;;;;3.27;1.20;;;24.70;63.10;;;;;;5347836;26;20461;-89
2024/04/09 13:29:59;;;;;;;3.63;1.23;;;24.70;63.10;;;;;;5347174;26;21111;-89
2024/04/09 13:32:27;;;;;;;1.80;0.90;;;24.70;62.70;;;;;;5347178;26;20507;-89
2024/04/09 13:34:53;;;;;;;5.50;1.10;;;24.70;62.40;;;;;;5347435;26;20453;-90
2024/04/09 13:37:25;;;;;;;2.40;0.90;;;24.70;62.40;;;;;;5355140;26;20533;-91
2024/04/09 13:39:54;;;;;;;3.10;1.20;;;24.70;62.40;;;;;;5347432;26;20218;-89
2024/04/09 13:42:22;;;;;;;4.13;1.07;;;24.80;62.10;;;;;;5346966;26;20556;-88
2024/04/09 13:44:48;;;;;;;2.83;1.00;;;24.70;62.70;;;;;;5347619;26;20975;-88
2024/04/09 13:47:17;;;;;;;3.43;1.20;;;24.70;62.80;;;;;;5347180;26;20499;-88
2024/04/09 13:49:47;;;;;;;2.50;1.23;;;24.70;62.90;;;;;;5347313;26;20493;-88
2024/04/09 13:52:15;;;;;;;10.30;2.07;;;24.70;63.20;;;;;;5351225;26;20963;-90
2024/04/09 13:54:41;;;;;;;2.70;1.20;;;24.70;62.50;;;;;;5350914;26;20562;-89
2024/04/09 13:57:12;;;;;;;3.10;1.27;;;24.70;63.60;;;;;;5350832;26;20862;-88
2024/04/09 13:59:38;;;;;;;2.37;1.13;;;24.70;63.40;;;;;;5350545;26;20253;-88
2024/04/09 14:02:07;;;;;;;3.13;1.10;;;24.70;64.80;;;;;;5350463;26;20457;-87
2024/04/09 14:04:32;;;;;;;2.70;1.20;;;24.70;63.60;;;;;;5351587;26;20311;-94
2024/04/09 14:07:01;;;;;;;3.57;1.33;;;24.70;64.50;;;;;;5351122;26;20780;-90
2024/04/09 14:09:27;;;;;;;4.03;1.20;;;24.70;65.10;;;;;;5350765;26;20226;-91
2024/04/09 14:11:55;;;;;;;3.37;1.20;;;24.80;64.90;;;;;;5365563;26;20495;-90
2024/04/09 14:14:24;;;;;;;3.00;1.27;;;24.80;64.90;;;;;;5372957;26;20572;-93
2024/04/09 14:16:55;;;;;;;5.57;1.30;;;24.80;65.60;;;;;;5364544;26;20442;-95
2024/04/09 14:19:21;;;;;;;3.20;1.10;;;24.80;64.10;;;;;;5351146;26;20516;-91
2024/04/09 14:21:49;;;;;;;4.20;1.27;;;24.80;64.80;;;;;;5350664;26;20528;-89
2024/04/09 14:24:15;;;;;;;6.23;1.10;;;24.80;63.60;;;;;;5349721;26;20449;-89
2024/04/09 14:26:44;;;;;;;3.50;1.20;;;24.90;63.70;;;;;;5349917;26;20563;-89
2024/04/09 14:29:10;;;;;;;2.47;1.20;;;24.80;63.20;;;;;;5349615;26;20619;-90
2024/04/09 14:31:41;;;;;;;4.70;1.40;;;24.80;63.00;;;;;;5349836;26;21012;-89
2024/04/09 14:34:07;;;;;;;3.50;1.00;;;24.80;63.00;;;;;;5350134;26;20498;-90